createdAt,value
2023-02-19T00:01:48.555Z,100974.13
2023-02-19T00:04:17.503Z,100976.00
2023-02-19T00:06:46.191Z,100977.84
2023-02-19T00:09:15.989Z,100979.16
2023-02-19T00:11:46.273Z,100960.66
2023-02-19T00:14:17.164Z,100960.00
2023-02-19T00:16:44.891Z,100955.13
2023-02-19T00:19:14.176Z,100956.59
2023-02-19T00:21:41.717Z,100956.91
2023-02-19T00:24:12.169Z,100963.06
2023-02-19T00:26:40.979Z,100961.19
2023-02-19T00:29:10.981Z,100952.19
2023-02-19T00:31:38.577Z,100953.22
2023-02-19T00:34:07.273Z,100940.53
2023-02-19T00:36:36.752Z,100936.09
2023-02-19T00:39:06.777Z,100930.69
2023-02-19T00:41:34.508Z,100936.63
2023-02-19T00:44:04.126Z,100931.66
2023-02-19T00:46:36.294Z,100932.91
2023-02-19T00:49:05.221Z,100929.47
2023-02-19T00:51:35.640Z,100941.41
2023-02-19T00:54:03.586Z,100942.09
2023-02-19T00:56:31.188Z,100948.50
2023-02-19T00:58:58.969Z,100947.66
2023-02-19T01:01:26.477Z,100955.53
2023-02-19T01:03:55.415Z,100949.38
2023-02-19T01:06:23.051Z,100949.19
2023-02-19T01:08:51.183Z,100946.19
2023-02-19T01:11:20.459Z,100939.78
2023-02-19T01:13:48.223Z,100942.38
2023-02-19T01:16:18.085Z,100941.88
2023-02-19T01:18:46.144Z,100952.47
2023-02-19T01:21:17.543Z,100949.44
2023-02-19T01:23:45.840Z,100947.28
2023-02-19T01:26:16.354Z,100950.06
2023-02-19T01:28:44.430Z,100956.72
2023-02-19T01:31:15.190Z,100948.63
2023-02-19T01:33:46.155Z,100964.25
2023-02-19T01:36:16.059Z,100960.97
2023-02-19T01:38:44.055Z,100956.81
2023-02-19T01:41:13.419Z,100955.53
2023-02-19T01:43:59.794Z,100955.91
2023-02-19T01:46:28.523Z,100963.81
2023-02-19T01:48:56.591Z,100963.56
2023-02-19T01:51:25.847Z,100961.88
2023-02-19T01:53:55.588Z,100963.09
2023-02-19T01:56:24.752Z,100964.75
2023-02-19T01:58:52.459Z,100973.78
2023-02-19T02:01:19.973Z,100964.91
2023-02-19T02:03:49.815Z,100959.06
2023-02-19T02:06:25.342Z,100961.31
2023-02-19T02:09:14.220Z,100957.38
2023-02-19T02:11:43.886Z,100958.44
2023-02-19T02:14:11.422Z,100948.31
2023-02-19T02:16:45.334Z,100950.25
2023-02-19T02:19:31.848Z,100949.94
2023-02-19T02:22:04.058Z,100942.13
2023-02-19T02:25:10.594Z,100952.28
2023-02-19T02:27:45.224Z,100945.47
2023-02-19T02:30:36.300Z,100937.44
2023-02-19T02:33:11.519Z,100945.31
2023-02-19T02:35:43.270Z,100940.13
2023-02-19T02:38:12.416Z,100935.81
2023-02-19T02:40:43.514Z,100944.00
2023-02-19T02:43:11.806Z,100955.75
2023-02-19T02:45:41.368Z,100946.94
2023-02-19T02:48:14.955Z,100953.00
2023-02-19T02:50:45.328Z,100953.66
2023-02-19T02:53:34.118Z,100959.19
2023-02-19T02:56:04.080Z,100966.28
2023-02-19T02:58:33.230Z,100968.47
2023-02-19T03:01:23.263Z,100957.53
2023-02-19T03:03:56.203Z,100972.53
2023-02-19T03:06:26.531Z,100973.34
2023-02-19T03:08:57.564Z,100965.44
2023-02-19T03:11:43.053Z,100969.81
2023-02-19T03:14:30.166Z,100973.84
2023-02-19T03:17:19.580Z,100967.38
2023-02-19T03:19:51.589Z,100973.50
2023-02-19T03:22:21.544Z,100972.22
2023-02-19T03:25:10.847Z,100976.63
2023-02-19T03:27:40.305Z,100977.66
2023-02-19T03:30:12.038Z,100987.34
2023-02-19T03:32:43.918Z,100984.44
2023-02-19T03:35:14.638Z,100996.56
2023-02-19T03:37:46.384Z,100993.69
2023-02-19T03:40:14.571Z,100994.34
2023-02-19T03:42:45.348Z,100990.44
2023-02-19T03:45:23.152Z,100990.19
2023-02-19T03:47:54.049Z,100995.91
2023-02-19T03:50:25.663Z,101001.91
2023-02-19T03:52:59.337Z,101013.34
2023-02-19T03:55:29.154Z,101012.97
2023-02-19T03:57:59.672Z,101010.88
2023-02-19T04:00:31.716Z,101014.97
2023-02-19T04:03:08.876Z,101020.78
2023-02-19T04:05:38.692Z,101019.94
2023-02-19T04:08:10.539Z,101026.91
2023-02-19T04:10:39.305Z,101020.41
2023-02-19T04:13:09.383Z,101028.16
2023-02-19T04:15:38.013Z,101028.16
2023-02-19T04:18:08.923Z,101033.88
2023-02-19T04:20:39.799Z,101037.13
2023-02-19T04:23:07.838Z,101037.72
2023-02-19T04:25:37.093Z,101038.13
2023-02-19T04:28:05.452Z,101041.41
2023-02-19T04:30:33.153Z,101047.38
2023-02-19T04:33:00.691Z,101053.53
2023-02-19T04:35:29.664Z,101043.88
2023-02-19T04:37:57.216Z,101049.00
2023-02-19T04:40:24.786Z,101049.59
2023-02-19T04:42:52.373Z,101058.03
2023-02-19T04:45:19.863Z,101066.28
2023-02-19T04:47:47.589Z,101068.31
2023-02-19T04:50:15.225Z,101081.69
2023-02-19T04:52:44.113Z,101080.66
2023-02-19T04:55:11.566Z,101083.09
2023-02-19T04:57:39.035Z,101073.28
2023-02-19T05:00:08.117Z,101081.06
2023-02-19T05:02:35.753Z,101084.97
2023-02-19T05:05:03.638Z,101104.09
2023-02-19T05:07:31.201Z,101091.78
2023-02-19T05:10:00.636Z,101102.63
2023-02-19T05:12:28.240Z,101105.53
2023-02-19T05:14:56.162Z,101104.88
2023-02-19T05:17:23.800Z,101111.47
2023-02-19T05:19:51.412Z,101108.81
2023-02-19T05:22:19.121Z,101113.56
2023-02-19T05:24:46.780Z,101114.16
2023-02-19T05:27:15.976Z,101115.81
2023-02-19T05:29:43.721Z,101110.69
2023-02-19T05:32:11.695Z,101111.09
2023-02-19T05:34:39.269Z,101102.47
2023-02-19T05:37:07.683Z,101112.97
2023-02-19T05:39:35.250Z,101120.75
2023-02-19T05:42:04.445Z,101107.63
2023-02-19T05:44:33.444Z,101122.63
2023-02-19T05:47:01.075Z,101121.38
2023-02-19T05:49:28.834Z,101128.56
2023-02-19T05:51:56.468Z,101130.22
2023-02-19T05:54:23.892Z,101139.88
2023-02-19T05:56:51.350Z,101141.34
2023-02-19T05:59:20.238Z,101141.13
2023-02-19T06:01:49.589Z,101149.53
2023-02-19T06:04:19.074Z,101138.06
2023-02-19T06:06:47.673Z,101149.34
2023-02-19T06:09:15.231Z,101151.41
2023-02-19T06:11:43.580Z,101157.59
2023-02-19T06:14:13.223Z,101160.47
2023-02-19T06:16:42.984Z,101172.38
2023-02-19T06:19:12.191Z,101181.44
2023-02-19T06:21:40.115Z,101190.69
2023-02-19T06:24:08.458Z,101185.34
2023-02-19T06:26:36.290Z,101196.41
2023-02-19T06:29:04.315Z,101204.41
2023-02-19T06:31:32.493Z,101212.25
2023-02-19T06:34:00.140Z,101209.75
2023-02-19T06:36:31.643Z,101207.28
2023-02-19T06:39:01.153Z,101219.22
2023-02-19T06:41:31.936Z,101226.59
2023-02-19T06:44:00.465Z,101228.03
2023-02-19T06:46:28.250Z,101239.50
2023-02-19T06:48:56.337Z,101254.72
2023-02-19T06:51:26.983Z,101257.59
2023-02-19T06:53:56.429Z,101253.88
2023-02-19T06:56:26.716Z,101262.13
2023-02-19T06:58:55.202Z,101260.66
2023-02-19T07:01:23.243Z,101272.16
2023-02-19T07:03:52.483Z,101282.00
2023-02-19T07:06:20.695Z,101279.94
2023-02-19T07:08:48.728Z,101285.72
2023-02-19T07:11:20.742Z,101293.31
2023-02-19T07:13:49.468Z,101300.47
2023-02-19T07:16:18.146Z,101308.72
2023-02-19T07:18:46.509Z,101309.09
2023-02-19T07:21:16.126Z,101315.16
2023-02-19T07:23:48.662Z,101305.56
2023-02-19T07:26:20.906Z,101312.16
2023-02-19T07:29:01.260Z,101319.78
2023-02-19T07:31:30.520Z,101322.44
2023-02-19T07:33:59.016Z,101329.00
2023-02-19T07:36:27.547Z,101331.63
2023-02-19T07:38:56.946Z,101338.41
2023-02-19T07:41:26.949Z,101343.38
2023-02-19T07:43:55.144Z,101348.53
2023-02-19T07:46:23.109Z,101350.50
2023-02-19T07:48:50.851Z,101365.13
2023-02-19T07:51:20.670Z,101368.97
2023-02-19T07:53:50.208Z,101368.00
2023-02-19T07:56:19.093Z,101376.00
2023-02-19T07:58:48.129Z,101379.44
2023-02-19T08:01:17.696Z,101384.44
2023-02-19T08:03:44.927Z,101383.94
2023-02-19T08:06:13.278Z,101394.94
2023-02-19T08:08:41.180Z,101397.31
2023-02-19T08:11:34.713Z,101411.00
2023-02-19T08:14:03.655Z,101414.38
2023-02-19T08:16:42.685Z,101414.00
2023-02-19T08:19:11.058Z,101420.56
2023-02-19T08:21:38.598Z,101424.72
2023-02-19T08:24:06.774Z,101428.13
2023-02-19T08:26:34.732Z,101428.84
2023-02-19T08:29:03.929Z,101429.53
2023-02-19T08:31:31.590Z,101434.88
2023-02-19T08:33:59.281Z,101435.75
2023-02-19T08:36:28.057Z,101425.25
2023-02-19T08:38:55.598Z,101430.88
2023-02-19T08:41:23.159Z,101444.31
2023-02-19T08:43:50.887Z,101437.16
2023-02-19T08:46:20.147Z,101443.38
2023-02-19T08:48:47.735Z,101440.47
2023-02-19T08:51:15.694Z,101447.97
2023-02-19T08:53:43.412Z,101445.09
2023-02-19T08:56:13.522Z,101450.38
2023-02-19T08:58:42.164Z,101451.91
2023-02-19T09:01:11.783Z,101453.13
2023-02-19T09:03:41.627Z,101468.28
2023-02-19T09:06:12.726Z,101474.66
2023-02-19T09:08:40.603Z,101476.72
2023-02-19T09:11:08.050Z,101480.09
2023-02-19T09:13:35.545Z,101483.19
2023-02-19T09:16:04.159Z,101488.31
2023-02-19T09:18:32.022Z,101494.69
2023-02-19T09:21:03.405Z,101497.34
2023-02-19T09:23:31.328Z,101507.06
2023-02-19T09:26:03.691Z,101515.25
2023-02-19T09:28:31.309Z,101522.41
2023-02-19T09:30:58.766Z,101517.06
2023-02-19T09:33:26.360Z,101527.84
2023-02-19T09:35:54.068Z,101533.25
2023-02-19T09:38:22.994Z,101533.59
2023-02-19T09:40:50.631Z,101528.09
2023-02-19T09:43:20.859Z,101533.19
2023-02-19T09:45:48.677Z,101539.19
2023-02-19T09:48:16.155Z,101528.13
2023-02-19T09:50:47.040Z,101520.50
2023-02-19T09:53:18.510Z,101534.69
2023-02-19T09:55:47.994Z,101547.09
2023-02-19T09:58:24.544Z,101552.06
2023-02-19T10:00:52.846Z,101561.53
2023-02-19T10:03:25.389Z,101558.69
2023-02-19T10:05:53.519Z,101552.88
2023-02-19T10:08:22.102Z,101544.66
2023-02-19T10:10:51.128Z,101550.44
2023-02-19T10:13:21.439Z,101562.38
2023-02-19T10:15:51.675Z,101568.78
2023-02-19T10:18:20.543Z,101577.78
2023-02-19T10:20:48.894Z,101581.75
2023-02-19T10:23:17.199Z,101595.09
2023-02-19T10:25:48.269Z,101596.47
2023-02-19T10:28:19.519Z,101605.81
2023-02-19T10:30:50.355Z,101609.56
2023-02-19T10:33:18.182Z,101612.97
2023-02-19T10:35:54.747Z,101620.88
2023-02-19T10:38:24.653Z,101622.75
2023-02-19T10:40:59.369Z,101619.28
2023-02-19T10:43:33.733Z,101625.28
2023-02-19T10:46:04.740Z,101622.00
2023-02-19T10:48:36.250Z,101621.16
2023-02-19T10:51:07.295Z,101626.38
2023-02-19T10:53:42.059Z,101620.59
2023-02-19T10:56:11.506Z,101622.28
2023-02-19T10:58:42.445Z,101633.53
2023-02-19T11:01:16.563Z,101631.75
2023-02-19T11:03:44.349Z,101635.41
2023-02-19T11:06:13.078Z,101637.34
2023-02-19T11:08:51.134Z,101635.59
2023-02-19T11:11:33.631Z,101643.63
2023-02-19T11:14:05.156Z,101642.41
2023-02-19T11:16:43.634Z,101655.78
2023-02-19T11:19:26.553Z,101660.97
2023-02-19T11:21:54.245Z,101672.75
2023-02-19T11:24:30.959Z,101660.13
2023-02-19T11:26:59.462Z,101660.75
2023-02-19T11:29:29.406Z,101670.44
2023-02-19T11:31:57.306Z,101661.22
2023-02-19T11:34:30.288Z,101654.53
2023-02-19T11:37:13.186Z,101664.03
2023-02-19T11:39:42.175Z,101657.38
2023-02-19T11:42:19.877Z,101655.41
2023-02-19T11:45:03.852Z,101652.34
2023-02-19T11:47:46.553Z,101648.53
2023-02-19T11:50:22.603Z,101672.78
2023-02-19T11:52:57.576Z,101672.09
2023-02-19T11:55:38.922Z,101681.09
2023-02-19T11:58:19.059Z,101674.53
2023-02-19T12:00:53.924Z,101679.31
2023-02-19T12:03:47.349Z,101668.66
2023-02-19T12:06:23.648Z,101671.38
2023-02-19T12:09:17.752Z,101679.50
2023-02-19T12:11:55.096Z,101683.22
2023-02-19T12:15:05.179Z,101679.56
2023-02-19T12:17:43.382Z,101684.13
2023-02-19T12:20:19.796Z,101681.50
2023-02-19T12:22:53.010Z,101679.44
2023-02-19T12:25:34.351Z,101677.19
2023-02-19T12:28:17.773Z,101686.81
2023-02-19T12:31:01.020Z,101687.31
2023-02-19T12:33:43.425Z,101688.22
2023-02-19T12:36:20.393Z,101683.19
2023-02-19T12:38:54.979Z,101691.06
2023-02-19T12:41:30.828Z,101693.72
2023-02-19T12:44:01.484Z,101694.59
2023-02-19T12:46:33.290Z,101688.34
2023-02-19T12:49:07.617Z,101704.38
2023-02-19T12:51:40.866Z,101701.94
2023-02-19T12:54:15.036Z,101716.53
2023-02-19T12:56:45.795Z,101712.50
2023-02-19T12:59:16.186Z,101718.81
2023-02-19T13:01:48.010Z,101711.63
2023-02-19T13:04:21.440Z,101715.09
2023-02-19T13:06:52.943Z,101717.13
2023-02-19T13:09:24.451Z,101719.81
2023-02-19T13:11:55.194Z,101708.75
2023-02-19T13:14:26.185Z,101714.91
2023-02-19T13:16:57.099Z,101706.66
2023-02-19T13:19:25.986Z,101691.25
2023-02-19T13:22:22.038Z,101689.19
2023-02-19T13:24:53.482Z,101685.13
2023-02-19T13:27:40.096Z,101676.41
2023-02-19T13:30:23.854Z,101687.53
2023-02-19T13:33:04.090Z,101691.41
2023-02-19T13:35:58.183Z,101686.69
2023-02-19T13:38:25.754Z,101682.78
2023-02-19T13:40:59.011Z,101679.09
2023-02-19T13:43:28.244Z,101685.28
2023-02-19T13:45:58.234Z,101685.13
2023-02-19T13:48:29.177Z,101680.69
2023-02-19T13:51:34.323Z,101678.53
2023-02-19T13:54:14.787Z,101682.50
2023-02-19T13:56:42.375Z,101676.09
2023-02-19T13:59:35.845Z,101680.63
2023-02-19T14:02:12.251Z,101688.03
2023-02-19T14:04:47.393Z,101689.72
2023-02-19T14:07:36.624Z,101693.78
2023-02-19T14:10:09.802Z,101692.78
2023-02-19T14:12:38.090Z,101698.94
2023-02-19T14:15:41.663Z,101701.25
2023-02-19T14:18:41.684Z,101708.47
2023-02-19T14:21:17.171Z,101707.63
2023-02-19T14:23:45.356Z,101701.66
2023-02-19T14:26:16.564Z,101706.22
2023-02-19T14:28:45.775Z,101706.03
2023-02-19T14:31:20.591Z,101701.50
2023-02-19T14:33:50.086Z,101716.09
2023-02-19T14:36:24.597Z,101708.50
2023-02-19T14:38:54.688Z,101711.53
2023-02-19T14:41:24.547Z,101714.31
2023-02-19T14:43:53.890Z,101718.56
2023-02-19T14:46:26.245Z,101726.13
2023-02-19T14:48:53.770Z,101726.38
2023-02-19T14:51:31.060Z,101722.28
2023-02-19T14:53:59.627Z,101706.59
2023-02-19T14:56:33.235Z,101696.97
2023-02-19T14:59:23.938Z,101701.72
2023-02-19T15:01:55.931Z,101696.97
2023-02-19T15:04:25.146Z,101687.25
2023-02-19T15:06:53.559Z,101695.50
2023-02-19T15:09:21.688Z,101693.00
2023-02-19T15:11:51.183Z,101695.75
2023-02-19T15:14:22.256Z,101696.31
2023-02-19T15:16:57.580Z,101692.06
2023-02-19T15:19:25.016Z,101691.81
2023-02-19T15:21:52.615Z,101692.19
2023-02-19T15:24:20.224Z,101693.06
2023-02-19T15:26:51.754Z,101693.69
2023-02-19T15:29:20.594Z,101691.00
2023-02-19T15:31:49.646Z,101694.06
2023-02-19T15:34:18.792Z,101698.63
2023-02-19T15:36:46.859Z,101702.09
2023-02-19T15:39:20.676Z,101694.88
2023-02-19T15:41:55.339Z,101685.81
2023-02-19T15:44:35.642Z,101686.69
2023-02-19T15:47:10.270Z,101688.94
2023-02-19T15:49:44.873Z,101695.53
2023-02-19T15:52:18.843Z,101697.19
2023-02-19T15:54:51.139Z,101692.81
2023-02-19T15:57:22.554Z,101693.03
2023-02-19T15:59:51.877Z,101688.50
2023-02-19T16:02:19.336Z,101708.50
2023-02-19T16:04:46.914Z,101713.44
2023-02-19T16:07:25.108Z,101716.25
2023-02-19T16:10:08.158Z,101710.28
2023-02-19T16:12:37.048Z,101705.34
2023-02-19T16:15:13.768Z,101705.34
2023-02-19T16:17:43.646Z,101713.38
2023-02-19T16:20:19.423Z,101720.97
2023-02-19T16:22:46.955Z,101721.81
2023-02-19T16:25:26.442Z,101721.16
2023-02-19T16:27:55.816Z,101720.97
2023-02-19T16:30:33.754Z,101724.06
2023-02-19T16:33:21.285Z,101727.41
2023-02-19T16:35:49.772Z,101729.69
2023-02-19T16:38:18.410Z,101732.31
2023-02-19T16:41:08.555Z,101723.84
2023-02-19T16:43:42.200Z,101722.00
2023-02-19T16:46:12.007Z,101726.94
2023-02-19T16:48:39.660Z,101726.25
2023-02-19T16:51:08.755Z,101731.59
2023-02-19T16:53:36.575Z,101730.22
2023-02-19T16:56:04.205Z,101736.91
2023-02-19T16:58:31.636Z,101743.16
2023-02-19T17:01:04.144Z,101747.66
2023-02-19T17:03:31.551Z,101744.28
2023-02-19T17:05:58.960Z,101736.97
2023-02-19T17:08:37.560Z,101751.78
2023-02-19T17:11:07.002Z,101747.94
2023-02-19T17:13:34.404Z,101757.63
2023-02-19T17:16:03.497Z,101750.47
2023-02-19T17:18:31.017Z,101754.38
2023-02-19T17:21:03.230Z,101756.88
2023-02-19T17:23:30.651Z,101758.91
2023-02-19T17:25:58.166Z,101756.44
2023-02-19T17:28:25.948Z,101766.34
2023-02-19T17:30:53.589Z,101759.75
2023-02-19T17:33:22.441Z,101760.97
2023-02-19T17:35:49.873Z,101746.75
2023-02-19T17:38:17.285Z,101752.31
2023-02-19T17:40:45.198Z,101748.84
2023-02-19T17:43:12.744Z,101746.78
2023-02-19T17:45:40.297Z,101750.88
2023-02-19T17:48:07.778Z,101747.69
2023-02-19T17:50:37.248Z,101751.44
2023-02-19T17:53:04.735Z,101745.47
2023-02-19T17:55:33.504Z,101751.19
2023-02-19T17:58:03.028Z,101750.38
2023-02-19T18:00:32.122Z,101750.00
2023-02-19T18:02:59.616Z,101752.63
2023-02-19T18:05:27.247Z,101759.59
2023-02-19T18:07:55.996Z,101767.84
2023-02-19T18:10:24.333Z,101763.56
2023-02-19T18:12:52.278Z,101761.84
2023-02-19T18:15:21.401Z,101779.16
2023-02-19T18:17:48.857Z,101779.38
2023-02-19T18:20:17.798Z,101779.31
2023-02-19T18:22:45.365Z,101776.06
2023-02-19T18:25:14.387Z,101781.41
2023-02-19T18:27:41.848Z,101778.81
2023-02-19T18:30:11.303Z,101791.41
2023-02-19T18:32:38.824Z,101792.91
2023-02-19T18:35:07.288Z,101792.66
2023-02-19T18:37:35.888Z,101797.00
2023-02-19T18:40:04.773Z,101795.97
2023-02-19T18:42:33.883Z,101796.34
2023-02-19T18:45:01.370Z,101792.75
2023-02-19T18:47:28.837Z,101792.44
2023-02-19T18:49:59.223Z,101790.19
2023-02-19T18:52:27.704Z,101782.41
2023-02-19T18:54:57.179Z,101789.28
2023-02-19T18:57:25.689Z,101787.78
2023-02-19T18:59:54.910Z,101786.91
2023-02-19T19:02:22.413Z,101775.59
2023-02-19T19:04:51.315Z,101775.97
2023-02-19T19:07:19.908Z,101779.69
2023-02-19T19:09:48.233Z,101773.72
2023-02-19T19:12:16.694Z,101768.78
2023-02-19T19:14:44.379Z,101768.72
2023-02-19T19:17:13.224Z,101766.69
2023-02-19T19:19:41.183Z,101762.50
2023-02-19T19:22:08.756Z,101765.03
2023-02-19T19:24:36.238Z,101758.09
2023-02-19T19:27:03.966Z,101765.16
2023-02-19T19:29:32.004Z,101758.03
2023-02-19T19:31:59.883Z,101756.53
2023-02-19T19:34:29.276Z,101748.00
2023-02-19T19:36:56.724Z,101754.94
2023-02-19T19:39:24.150Z,101750.00
2023-02-19T19:41:54.830Z,101745.50
2023-02-19T19:44:25.089Z,101749.53
2023-02-19T19:46:53.911Z,101744.06
2023-02-19T19:49:22.643Z,101726.34
2023-02-19T19:51:52.057Z,101734.34
2023-02-19T19:54:20.150Z,101735.84
2023-02-19T19:56:50.183Z,101727.34
2023-02-19T19:59:18.839Z,101730.66
2023-02-19T20:01:50.794Z,101731.28
2023-02-19T20:04:19.001Z,101730.25
2023-02-19T20:06:46.582Z,101731.47
2023-02-19T20:09:16.044Z,101737.81
2023-02-19T20:11:47.408Z,101740.75
2023-02-19T20:14:15.295Z,101751.56
2023-02-19T20:16:44.690Z,101750.78
2023-02-19T20:19:12.457Z,101751.09
2023-02-19T20:21:40.026Z,101759.81
2023-02-19T20:24:08.133Z,101759.81
2023-02-19T20:26:36.825Z,101763.00
2023-02-19T20:29:06.135Z,101764.94
2023-02-19T20:31:34.599Z,101755.91
2023-02-19T20:34:03.112Z,101749.44
2023-02-19T20:36:33.357Z,101743.69
2023-02-19T20:39:01.059Z,101738.31
2023-02-19T20:41:28.628Z,101733.59
2023-02-19T20:43:57.556Z,101720.78
2023-02-19T20:46:25.145Z,101727.09
2023-02-19T20:48:52.658Z,101723.44
2023-02-19T20:51:20.189Z,101725.53
2023-02-19T20:53:47.761Z,101722.84
2023-02-19T20:56:15.421Z,101719.38
2023-02-19T20:58:43.157Z,101717.72
2023-02-19T21:01:12.595Z,101729.47
2023-02-19T21:03:40.132Z,101733.75
2023-02-19T21:06:08.146Z,101714.41
2023-02-19T21:08:36.449Z,101712.38
2023-02-19T21:11:04.084Z,101720.91
2023-02-19T21:13:31.807Z,101717.00
2023-02-19T21:15:59.548Z,101714.53
2023-02-19T21:18:29.661Z,101725.03
2023-02-19T21:20:57.812Z,101722.59
2023-02-19T21:23:25.455Z,101725.44
2023-02-19T21:25:54.682Z,101725.81
2023-02-19T21:28:22.513Z,101711.91
2023-02-19T21:30:50.368Z,101719.50
2023-02-19T21:33:18.019Z,101709.97
2023-02-19T21:35:47.588Z,101717.66
2023-02-19T21:38:15.249Z,101713.06
2023-02-19T21:40:43.262Z,101717.56
2023-02-19T21:43:12.732Z,101717.63
2023-02-19T21:45:40.373Z,101725.16
2023-02-19T21:48:09.322Z,101736.16
2023-02-19T21:50:37.217Z,101736.31
2023-02-19T21:53:06.445Z,101718.72
2023-02-19T21:55:34.027Z,101723.50
2023-02-19T21:58:01.613Z,101722.38
2023-02-19T22:00:29.259Z,101721.00
2023-02-19T22:02:56.938Z,101712.03
2023-02-19T22:05:25.618Z,101710.94
2023-02-19T22:07:53.984Z,101707.00
2023-02-19T22:10:23.383Z,101702.97
2023-02-19T22:12:51.125Z,101701.59
2023-02-19T22:15:19.708Z,101684.34
2023-02-19T22:17:47.319Z,101693.50
2023-02-19T22:20:17.170Z,101681.06
2023-02-19T22:22:44.734Z,101670.78
2023-02-19T22:25:12.250Z,101664.13
2023-02-19T22:27:41.286Z,101666.19
2023-02-19T22:30:09.767Z,101657.13
2023-02-19T22:32:37.379Z,101658.47
2023-02-19T22:35:04.943Z,101661.09
2023-02-19T22:37:32.438Z,101659.03
2023-02-19T22:39:59.839Z,101660.22
2023-02-19T22:42:29.252Z,101660.78
2023-02-19T22:44:58.027Z,101651.97
2023-02-19T22:47:25.571Z,101646.16
2023-02-19T22:49:53.090Z,101651.84
2023-02-19T22:52:20.497Z,101658.28
2023-02-19T22:54:47.898Z,101650.75
2023-02-19T22:57:15.444Z,101655.75
2023-02-19T22:59:42.852Z,101636.63
2023-02-19T23:02:11.663Z,101650.22
2023-02-19T23:04:39.075Z,101657.81
2023-02-19T23:07:06.955Z,101652.47
2023-02-19T23:09:34.543Z,101656.28
2023-02-19T23:12:03.106Z,101656.41
2023-02-19T23:14:30.666Z,101658.34
2023-02-19T23:16:58.341Z,101653.84
2023-02-19T23:19:27.513Z,101652.19
2023-02-19T23:21:55.184Z,101663.78
2023-02-19T23:24:22.750Z,101654.19
2023-02-19T23:26:52.294Z,101653.00
2023-02-19T23:29:21.338Z,101641.91
2023-02-19T23:31:49.002Z,101637.28
2023-02-19T23:34:17.002Z,101632.94
2023-02-19T23:36:47.821Z,101619.50
2023-02-19T23:39:17.873Z,101612.31
2023-02-19T23:41:48.955Z,101606.19
2023-02-19T23:44:16.635Z,101607.38
2023-02-19T23:46:44.721Z,101607.72
2023-02-19T23:49:12.246Z,101606.81
2023-02-19T23:51:39.867Z,101597.09
2023-02-19T23:54:09.143Z,101599.28
2023-02-19T23:56:36.752Z,101604.44
2023-02-19T23:59:04.733Z,101592.72
